Terminal Aerodrome Forecast
Issued by NWS Wilmington, OH

Current Version | Previous Version | Graphics & Text | Print | Product List | Glossary On
Versions: 1 2 3 4 5 6 7 8 9 10 11 12 13 14 15 16 17 18 19 20 21 22 23 24 25 26 27 28
000
FTUS41 KILN 252000 AAB
TAFCVG
TAF AMD
KCVG 252057Z 2521/2624 08012KT 4SM BR VCTS OVC008CB
      TEMPO 2521/2523 2SM SHRA OVC005
     FM252300 06012G20KT P6SM VCSH OVC008
     FM260800 02012G20KT P6SM SCT008 BKN035
     FM261300 01013KT P6SM SCT035=

USA.gov is the U.S. government's official web portal to all federal, state and local government web resources and services.